Time;durP1;ratioP1;P1;durP2;ratioP2;P2;SDS_P1;SDS_P2;PMS_P1;PMS_P2;Temp;Humidity;BMP_temperature;BMP_pressure;BME280_temperature;BME280_humidity;BME280_pressure;Samples;Min_cycle;Max_cycle;Signal;HPM_P1;HPM_P2
2021/08/15 00:00:25;;;;;;;5.97;4.00;;;;;;;;;;5047716;28;20260;-69
2021/08/15 00:02:50;;;;;;;6.90;4.82;;;;;;;;;;5046508;28;20302;-69
2021/08/15 00:05:15;;;;;;;5.17;4.47;;;;;;;;;;5044656;28;20184;-70
2021/08/15 00:07:41;;;;;;;6.97;4.63;;;;;;;;;;5045523;28;20916;-66
2021/08/15 00:10:06;;;;;;;6.82;4.57;;;;;;;;;;5049149;28;20651;-70
2021/08/15 00:12:32;;;;;;;5.68;4.53;;;;;;;;;;5050120;28;20173;-69
2021/08/15 00:14:57;;;;;;;8.50;4.90;;;;;;;;;;5051037;28;20166;-68
2021/08/15 00:17:22;;;;;;;5.88;4.35;;;;;;;;;;5050446;28;20177;-68
2021/08/15 00:19:47;;;;;;;6.13;4.18;;;;;;;;;;5050437;28;20213;-68
2021/08/15 00:22:12;;;;;;;7.65;5.13;;;;;;;;;;5046355;28;20261;-69
2021/08/15 00:24:38;;;;;;;6.10;4.73;;;;;;;;;;5035096;28;20276;-68
2021/08/15 00:27:03;;;;;;;7.00;4.20;;;;;;;;;;5048256;28;20414;-68
2021/08/15 00:29:28;;;;;;;5.38;4.47;;;;;;;;;;5048477;28;20197;-68
2021/08/15 00:31:53;;;;;;;8.75;4.60;;;;;;;;;;5050388;28;20184;-68
2021/08/15 00:34:19;;;;;;;5.80;4.50;;;;;;;;;;5051036;28;20181;-69
2021/08/15 00:36:44;;;;;;;6.10;4.47;;;;;;;;;;5048976;28;20185;-67
2021/08/15 00:39:09;;;;;;;5.47;4.40;;;;;;;;;;5050198;28;20430;-69
2021/08/15 00:41:34;;;;;;;6.60;5.00;;;;;;;;;;5045385;28;20583;-68
2021/08/15 00:44:01;;;;;;;6.47;4.45;;;;;;;;;;5046922;28;20206;-67
2021/08/15 00:46:27;;;;;;;5.55;4.68;;;;;;;;;;5041747;28;20631;-69
2021/08/15 00:48:52;;;;;;;7.53;5.38;;;;;;;;;;5048752;28;20205;-67
2021/08/15 00:51:18;;;;;;;6.57;4.05;;;;;;;;;;5049827;28;20174;-69
2021/08/15 00:53:43;;;;;;;5.10;4.47;;;;;;;;;;5053117;28;20556;-66
2021/08/15 00:56:08;;;;;;;8.55;5.68;;;;;;;;;;5045295;28;20185;-69
2021/08/15 00:58:33;;;;;;;5.90;4.72;;;;;;;;;;5049450;28;20178;-69
2021/08/15 01:01:08;;;;;;;7.60;5.53;;;;;;;;;;5054899;28;20173;-69
2021/08/15 01:03:34;;;;;;;7.18;4.30;;;;;;;;;;5047636;28;20212;-68
2021/08/15 01:05:59;;;;;;;8.73;5.10;;;;;;;;;;5054523;28;20273;-66
2021/08/15 01:08:26;;;;;;;7.88;5.60;;;;;;;;;;5051879;28;20195;-66
2021/08/15 01:10:51;;;;;;;8.77;5.75;;;;;;;;;;5051066;28;20177;-67
2021/08/15 01:13:16;;;;;;;7.95;5.78;;;;;;;;;;5052491;28;20655;-67
2021/08/15 01:15:41;;;;;;;8.97;6.07;;;;;;;;;;5052881;28;20196;-67
2021/08/15 01:18:33;;;;;;;5.43;4.65;;;;;;;;;;5054674;28;20509;-67
2021/08/15 01:20:59;;;;;;;5.10;4.45;;;;;;;;;;5053225;28;20193;-69
2021/08/15 01:23:25;;;;;;;8.30;5.13;;;;;;;;;;5051387;28;20205;-69
2021/08/15 01:25:50;;;;;;;7.18;5.00;;;;;;;;;;5053150;28;20181;-71
2021/08/15 01:28:16;;;;;;;5.80;4.70;;;;;;;;;;5050880;28;20181;-68
2021/08/15 01:30:42;;;;;;;6.35;5.05;;;;;;;;;;5052393;28;20177;-68
2021/08/15 01:33:08;;;;;;;7.88;4.80;;;;;;;;;;5054088;28;20199;-69
2021/08/15 01:35:33;;;;;;;6.75;5.13;;;;;;;;;;5051748;28;20201;-69
2021/08/15 01:37:59;;;;;;;6.73;4.77;;;;;;;;;;5050012;28;20182;-68
2021/08/15 01:40:24;;;;;;;9.05;5.15;;;;;;;;;;5048182;28;20466;-69
2021/08/15 01:42:49;;;;;;;10.67;5.77;;;;;;;;;;5050185;28;20304;-69
2021/08/15 01:45:14;;;;;;;7.90;5.30;;;;;;;;;;5052661;28;20403;-69
2021/08/15 01:47:39;;;;;;;8.10;5.43;;;;;;;;;;5049229;28;20534;-69
2021/08/15 01:50:05;;;;;;;8.73;6.00;;;;;;;;;;5034821;28;20744;-68
2021/08/15 01:52:30;;;;;;;9.57;6.65;;;;;;;;;;5053835;28;20394;-69
2021/08/15 01:54:55;;;;;;;8.02;6.32;;;;;;;;;;5050807;28;20215;-66
2021/08/15 01:57:20;;;;;;;10.00;6.53;;;;;;;;;;5050875;28;20729;-66
2021/08/15 01:59:45;;;;;;;9.50;6.03;;;;;;;;;;5031020;28;20474;-69
2021/08/15 02:02:11;;;;;;;11.35;6.53;;;;;;;;;;5050106;28;20415;-69
2021/08/15 02:04:36;;;;;;;9.17;6.30;;;;;;;;;;5049008;28;20210;-68
2021/08/15 02:07:02;;;;;;;11.60;6.68;;;;;;;;;;5047505;28;20872;-69
2021/08/15 02:09:27;;;;;;;10.18;7.60;;;;;;;;;;5030076;28;20623;-69
2021/08/15 02:11:53;;;;;;;12.55;6.72;;;;;;;;;;5049889;28;20261;-69
2021/08/15 02:14:18;;;;;;;9.57;7.17;;;;;;;;;;5051583;28;20177;-69
2021/08/15 02:16:43;;;;;;;8.75;6.85;;;;;;;;;;5051954;28;20461;-68
2021/08/15 02:19:09;;;;;;;6.90;5.73;;;;;;;;;;5050329;28;20305;-68
2021/08/15 02:21:34;;;;;;;9.05;5.93;;;;;;;;;;5047643;28;20403;-68
2021/08/15 02:23:59;;;;;;;10.38;7.13;;;;;;;;;;5049197;28;20213;-67
2021/08/15 02:26:25;;;;;;;8.10;6.72;;;;;;;;;;5051980;28;20185;-67
2021/08/15 02:28:50;;;;;;;9.80;7.40;;;;;;;;;;5050536;28;21185;-67
2021/08/15 02:31:15;;;;;;;11.13;7.53;;;;;;;;;;5052697;28;20510;-68
2021/08/15 02:33:40;;;;;;;10.65;7.50;;;;;;;;;;5051652;28;20442;-68
2021/08/15 02:36:05;;;;;;;9.43;7.43;;;;;;;;;;5050177;28;20281;-67
2021/08/15 02:38:30;;;;;;;8.57;6.10;;;;;;;;;;5032659;28;20190;-68
2021/08/15 02:40:56;;;;;;;12.38;6.90;;;;;;;;;;5052687;28;20184;-67
2021/08/15 02:43:21;;;;;;;10.20;7.57;;;;;;;;;;5050714;28;20642;-68
2021/08/15 02:45:46;;;;;;;10.02;7.32;;;;;;;;;;5051952;28;20189;-67
2021/08/15 02:48:11;;;;;;;9.02;6.82;;;;;;;;;;5051366;28;20627;-67
2021/08/15 02:50:36;;;;;;;11.65;7.80;;;;;;;;;;5050051;28;20205;-68
2021/08/15 02:53:02;;;;;;;11.40;7.15;;;;;;;;;;5050779;28;20182;-67
2021/08/15 02:55:27;;;;;;;8.90;6.13;;;;;;;;;;5051606;28;20208;-67
2021/08/15 02:57:52;;;;;;;12.07;6.82;;;;;;;;;;5049770;28;20182;-68
2021/08/15 03:00:17;;;;;;;10.50;7.70;;;;;;;;;;5041032;28;20198;-67
2021/08/15 03:02:43;;;;;;;12.25;7.45;;;;;;;;;;5048918;28;20231;-67
2021/08/15 03:05:09;;;;;;;11.68;7.28;;;;;;;;;;5026475;28;20257;-68
2021/08/15 03:07:34;;;;;;;12.90;8.57;;;;;;;;;;5045607;28;20181;-68
2021/08/15 03:09:59;;;;;;;9.13;7.15;;;;;;;;;;5049073;28;20194;-68
2021/08/15 03:12:25;;;;;;;12.50;8.98;;;;;;;;;;5051827;28;20177;-67
2021/08/15 03:14:50;;;;;;;11.80;7.82;;;;;;;;;;5050497;28;20546;-68
2021/08/15 03:17:15;;;;;;;11.37;7.20;;;;;;;;;;5047098;28;20574;-67
2021/08/15 03:19:40;;;;;;;10.57;7.40;;;;;;;;;;5026269;28;20565;-67
2021/08/15 03:22:06;;;;;;;11.48;7.63;;;;;;;;;;5047970;28;20717;-67
2021/08/15 03:24:31;;;;;;;12.45;7.53;;;;;;;;;;5045945;28;20229;-68
2021/08/15 03:26:56;;;;;;;9.88;7.35;;;;;;;;;;5048985;28;20724;-68
2021/08/15 03:29:21;;;;;;;8.40;6.87;;;;;;;;;;5047698;28;20193;-67
2021/08/15 03:31:47;;;;;;;10.98;7.93;;;;;;;;;;5047761;28;20620;-68
2021/08/15 03:34:12;;;;;;;8.77;7.22;;;;;;;;;;5049534;28;20184;-67
2021/08/15 03:36:38;;;;;;;9.63;7.68;;;;;;;;;;5049008;28;20192;-68
2021/08/15 03:39:04;;;;;;;11.40;8.20;;;;;;;;;;5051084;28;20240;-67
2021/08/15 03:41:29;;;;;;;15.50;8.48;;;;;;;;;;5043479;28;20177;-67
2021/08/15 03:43:54;;;;;;;9.68;7.82;;;;;;;;;;5051859;28;20838;-68
2021/08/15 03:46:19;;;;;;;11.38;8.20;;;;;;;;;;5050679;28;20216;-67
2021/08/15 03:48:44;;;;;;;8.73;7.00;;;;;;;;;;5033231;28;20280;-70
2021/08/15 03:51:10;;;;;;;11.65;7.35;;;;;;;;;;5049079;28;20415;-67
2021/08/15 03:53:35;;;;;;;11.80;8.40;;;;;;;;;;5051546;28;20189;-68
2021/08/15 03:56:00;;;;;;;9.45;7.10;;;;;;;;;;5051128;28;20181;-67
2021/08/15 03:58:28;;;;;;;11.93;7.90;;;;;;;;;;5032899;28;20184;-67
2021/08/15 04:00:53;;;;;;;12.00;8.77;;;;;;;;;;5050371;28;20484;-67
2021/08/15 04:03:18;;;;;;;11.53;7.03;;;;;;;;;;5051000;28;20663;-67
2021/08/15 04:05:43;;;;;;;15.83;8.37;;;;;;;;;;5051032;28;20441;-68
2021/08/15 04:08:09;;;;;;;12.93;8.50;;;;;;;;;;5049961;28;20476;-66
2021/08/15 04:10:34;;;;;;;12.73;8.52;;;;;;;;;;5050761;28;20243;-70
2021/08/15 04:12:59;;;;;;;10.35;7.80;;;;;;;;;;5051399;28;20291;-67
2021/08/15 04:15:25;;;;;;;12.02;8.68;;;;;;;;;;5050617;28;20643;-67
2021/08/15 04:17:50;;;;;;;11.00;8.70;;;;;;;;;;5049981;28;20509;-68
2021/08/15 04:20:16;;;;;;;14.60;8.07;;;;;;;;;;5046764;28;20209;-69
2021/08/15 04:22:41;;;;;;;11.10;7.85;;;;;;;;;;5042172;28;20178;-70
2021/08/15 04:25:06;;;;;;;10.13;7.65;;;;;;;;;;5049383;28;20201;-67
2021/08/15 04:27:32;;;;;;;9.00;7.00;;;;;;;;;;5047439;28;20169;-70
2021/08/15 04:29:57;;;;;;;9.77;7.43;;;;;;;;;;5046521;28;20698;-67
2021/08/15 04:32:22;;;;;;;9.63;7.50;;;;;;;;;;5051067;28;20663;-67
2021/08/15 04:34:47;;;;;;;11.07;7.37;;;;;;;;;;5044425;28;20174;-69
2021/08/15 04:37:12;;;;;;;9.70;7.37;;;;;;;;;;5043540;28;20548;-69
2021/08/15 04:39:37;;;;;;;13.00;8.02;;;;;;;;;;5043200;28;20457;-70
2021/08/15 04:42:03;;;;;;;10.03;7.43;;;;;;;;;;5042335;28;20208;-69
2021/08/15 04:44:28;;;;;;;12.50;8.40;;;;;;;;;;5050767;28;20442;-68
2021/08/15 04:46:54;;;;;;;13.57;8.10;;;;;;;;;;5049742;28;20486;-69
2021/08/15 04:49:19;;;;;;;13.23;8.57;;;;;;;;;;5050549;28;20198;-68
2021/08/15 04:51:44;;;;;;;11.20;8.50;;;;;;;;;;5051105;28;20839;-68
2021/08/15 04:54:09;;;;;;;12.10;8.50;;;;;;;;;;5051119;28;20209;-68
2021/08/15 04:56:34;;;;;;;12.23;8.50;;;;;;;;;;5049819;28;20181;-69
2021/08/15 04:58:59;;;;;;;10.75;8.00;;;;;;;;;;5050231;28;21267;-69
2021/08/15 05:01:25;;;;;;;12.05;9.50;;;;;;;;;;5047004;28;20182;-69
2021/08/15 05:03:52;;;;;;;10.05;7.65;;;;;;;;;;5039759;28;20284;-69
2021/08/15 05:06:17;;;;;;;12.20;8.15;;;;;;;;;;5050643;28;20170;-69
2021/08/15 05:08:42;;;;;;;10.20;7.88;;;;;;;;;;5046872;28;20190;-66
2021/08/15 05:11:07;;;;;;;9.37;6.83;;;;;;;;;;5050263;28;20177;-69
2021/08/15 05:13:32;;;;;;;7.30;5.87;;;;;;;;;;5032835;28;20498;-67
2021/08/15 05:15:57;;;;;;;9.97;6.80;;;;;;;;;;5049656;28;20410;-69
2021/08/15 05:18:23;;;;;;;10.60;6.97;;;;;;;;;;5049234;28;20506;-70
2021/08/15 05:20:48;;;;;;;11.63;7.07;;;;;;;;;;5050059;28;20197;-68
2021/08/15 05:23:13;;;;;;;9.40;6.90;;;;;;;;;;5050364;28;20269;-68
2021/08/15 05:25:39;;;;;;;8.48;7.07;;;;;;;;;;5049436;28;20196;-69
2021/08/15 05:28:04;;;;;;;11.52;7.90;;;;;;;;;;5047022;28;20177;-67
2021/08/15 05:30:30;;;;;;;10.15;7.72;;;;;;;;;;5031313;28;20292;-68
2021/08/15 05:32:55;;;;;;;11.65;8.30;;;;;;;;;;5040824;28;20204;-68
2021/08/15 05:35:20;;;;;;;10.43;7.23;;;;;;;;;;5039403;28;20268;-68
2021/08/15 05:37:46;;;;;;;9.52;7.38;;;;;;;;;;5031678;28;20422;-69
2021/08/15 05:40:11;;;;;;;12.25;8.10;;;;;;;;;;5052552;28;20189;-69
2021/08/15 05:42:36;;;;;;;9.52;6.95;;;;;;;;;;5053703;28;20177;-68
2021/08/15 05:45:02;;;;;;;8.63;6.60;;;;;;;;;;5050787;28;20181;-69
2021/08/15 05:47:27;;;;;;;10.07;7.63;;;;;;;;;;5052067;28;20515;-68
2021/08/15 05:49:52;;;;;;;8.40;7.37;;;;;;;;;;5051374;28;20703;-68
2021/08/15 05:52:17;;;;;;;9.07;7.80;;;;;;;;;;5052909;28;20458;-69
2021/08/15 05:54:43;;;;;;;12.50;8.33;;;;;;;;;;5052736;28;20970;-69
2021/08/15 05:57:08;;;;;;;9.70;7.88;;;;;;;;;;5050184;28;20434;-67
2021/08/15 05:59:34;;;;;;;13.00;7.93;;;;;;;;;;5051307;28;20284;-68
2021/08/15 06:01:59;;;;;;;9.95;7.55;;;;;;;;;;5051327;28;20433;-67
2021/08/15 06:04:24;;;;;;;11.30;7.95;;;;;;;;;;5041812;28;20197;-67
2021/08/15 06:06:49;;;;;;;9.80;7.53;;;;;;;;;;5047634;28;20177;-68
2021/08/15 06:09:14;;;;;;;12.38;7.68;;;;;;;;;;5048150;28;20186;-68
2021/08/15 06:11:39;;;;;;;8.35;6.18;;;;;;;;;;5051780;28;20177;-68
2021/08/15 06:14:05;;;;;;;17.45;7.82;;;;;;;;;;5050401;28;20229;-67
2021/08/15 06:16:30;;;;;;;9.45;7.43;;;;;;;;;;5049709;28;20188;-68
2021/08/15 06:18:55;;;;;;;11.73;7.33;;;;;;;;;;5048838;28;20231;-68
2021/08/15 06:21:20;;;;;;;12.20;7.53;;;;;;;;;;5050131;28;20530;-69
2021/08/15 06:23:47;;;;;;;10.45;7.13;;;;;;;;;;5050246;28;20875;-68
2021/08/15 06:26:12;;;;;;;9.20;7.55;;;;;;;;;;5036296;28;20201;-68
2021/08/15 06:28:37;;;;;;;8.80;7.30;;;;;;;;;;5051245;28;20229;-68
2021/08/15 06:31:03;;;;;;;10.13;7.67;;;;;;;;;;5034679;28;20169;-67
2021/08/15 06:33:28;;;;;;;14.73;7.68;;;;;;;;;;5053067;28;20406;-66
2021/08/15 06:35:53;;;;;;;10.80;7.50;;;;;;;;;;5052886;28;20186;-66
2021/08/15 06:38:18;;;;;;;11.30;7.50;;;;;;;;;;5050262;28;20181;-67
2021/08/15 06:40:44;;;;;;;13.02;8.07;;;;;;;;;;5051552;28;20442;-68
2021/08/15 06:43:10;;;;;;;7.50;6.70;;;;;;;;;;5052901;28;20229;-66
2021/08/15 06:45:36;;;;;;;13.10;6.85;;;;;;;;;;5052799;28;20761;-66
2021/08/15 06:48:01;;;;;;;11.93;6.68;;;;;;;;;;5052094;28;20181;-68
2021/08/15 06:50:26;;;;;;;11.55;6.25;;;;;;;;;;5049562;28;21937;-66
2021/08/15 06:52:51;;;;;;;11.80;7.43;;;;;;;;;;5052702;28;20185;-66
2021/08/15 06:55:17;;;;;;;13.05;6.70;;;;;;;;;;5052233;28;20182;-66
2021/08/15 06:57:42;;;;;;;11.27;6.68;;;;;;;;;;5052550;28;20170;-68
2021/08/15 07:00:07;;;;;;;12.43;6.80;;;;;;;;;;5052093;28;20542;-67
2021/08/15 07:02:36;;;;;;;10.70;6.60;;;;;;;;;;5049321;28;20453;-67
2021/08/15 07:05:01;;;;;;;10.32;6.65;;;;;;;;;;5037591;28;20268;-68
2021/08/15 07:07:26;;;;;;;10.65;6.45;;;;;;;;;;5044251;28;20320;-66
2021/08/15 07:09:51;;;;;;;9.48;6.15;;;;;;;;;;5050540;28;20241;-67
2021/08/15 07:12:17;;;;;;;13.67;6.60;;;;;;;;;;5049807;28;20201;-67
2021/08/15 07:14:42;;;;;;;8.20;5.72;;;;;;;;;;5050415;28;20411;-67
2021/08/15 07:17:07;;;;;;;10.05;6.82;;;;;;;;;;5050250;28;20716;-66
2021/08/15 07:19:32;;;;;;;6.97;6.00;;;;;;;;;;5049972;28;20339;-67
2021/08/15 07:21:58;;;;;;;11.88;6.47;;;;;;;;;;5043005;28;20713;-67
2021/08/15 07:24:23;;;;;;;9.20;5.78;;;;;;;;;;5050794;28;20198;-67
2021/08/15 07:26:48;;;;;;;9.43;6.30;;;;;;;;;;5049315;28;20201;-67
2021/08/15 07:29:13;;;;;;;9.30;6.00;;;;;;;;;;5045860;28;20457;-67
2021/08/15 07:31:38;;;;;;;10.83;5.40;;;;;;;;;;5047801;28;20890;-67
2021/08/15 07:34:03;;;;;;;9.33;5.80;;;;;;;;;;5032809;28;20431;-67
2021/08/15 07:36:29;;;;;;;10.63;6.47;;;;;;;;;;5049807;28;20413;-67
2021/08/15 07:38:54;;;;;;;9.98;6.40;;;;;;;;;;5042111;28;20458;-66
2021/08/15 07:41:19;;;;;;;9.97;6.00;;;;;;;;;;5034319;28;20181;-67
2021/08/15 07:43:45;;;;;;;11.00;6.85;;;;;;;;;;5045206;28;20494;-67
2021/08/15 07:46:13;;;;;;;13.07;6.18;;;;;;;;;;5029319;28;20173;-68
2021/08/15 07:48:39;;;;;;;13.48;6.65;;;;;;;;;;5044036;28;20211;-67
2021/08/15 07:51:04;;;;;;;8.18;6.30;;;;;;;;;;5050106;28;20177;-67
2021/08/15 07:53:29;;;;;;;8.30;5.40;;;;;;;;;;5051653;28;20173;-67
2021/08/15 07:55:55;;;;;;;11.20;6.07;;;;;;;;;;5030424;28;20452;-67
2021/08/15 07:58:21;;;;;;;9.73;5.40;;;;;;;;;;5047748;28;20243;-66
2021/08/15 08:00:47;;;;;;;13.88;6.13;;;;;;;;;;5050501;28;20185;-68
2021/08/15 08:03:13;;;;;;;10.80;5.45;;;;;;;;;;5050917;28;20212;-68
2021/08/15 08:05:38;;;;;;;10.88;5.72;;;;;;;;;;5048141;28;20263;-67
2021/08/15 08:08:03;;;;;;;14.70;7.28;;;;;;;;;;5045915;28;20191;-67
2021/08/15 08:10:29;;;;;;;10.85;5.50;;;;;;;;;;5050835;28;20221;-68
2021/08/15 08:12:54;;;;;;;7.15;4.78;;;;;;;;;;5051428;28;20170;-67
2021/08/15 08:15:19;;;;;;;11.53;6.00;;;;;;;;;;5043564;28;20224;-67
2021/08/15 08:17:44;;;;;;;12.95;5.47;;;;;;;;;;5048346;28;20436;-68
2021/08/15 08:20:12;;;;;;;9.13;5.75;;;;;;;;;;5068194;22;20680;-68
2021/08/15 08:22:38;;;;;;;12.88;4.97;;;;;;;;;;5065146;28;20201;-68
2021/08/15 08:25:03;;;;;;;9.00;5.05;;;;;;;;;;5065893;28;20283;-68
2021/08/15 08:27:28;;;;;;;11.75;5.97;;;;;;;;;;5070966;28;20180;-69
2021/08/15 08:29:54;;;;;;;8.33;5.03;;;;;;;;;;5039898;28;20197;-69
2021/08/15 08:32:19;;;;;;;11.20;5.93;;;;;;;;;;5050429;28;20261;-69
2021/08/15 08:34:44;;;;;;;13.40;8.27;;;;;;;;;;5046189;28;20805;-69
2021/08/15 08:37:10;;;;;;;13.27;5.83;;;;;;;;;;5047239;28;20495;-69
2021/08/15 08:39:35;;;;;;;11.07;6.00;;;;;;;;;;5048894;28;20668;-70
2021/08/15 08:42:02;;;;;;;11.13;5.53;;;;;;;;;;5044474;28;20189;-70
2021/08/15 08:44:31;;;;;;;11.05;5.72;;;;;;;;;;5050550;28;20205;-69
2021/08/15 08:47:06;;;;;;;13.05;5.28;;;;;;;;;;5049510;28;20178;-70
2021/08/15 08:49:35;;;;;;;10.15;4.78;;;;;;;;;;5049686;28;20263;-69
2021/08/15 08:52:00;;;;;;;11.13;5.75;;;;;;;;;;5051068;28;20181;-69
2021/08/15 08:54:27;;;;;;;9.73;5.47;;;;;;;;;;5032408;28;20184;-69
2021/08/15 08:56:52;;;;;;;11.52;6.03;;;;;;;;;;5049549;28;20426;-70
2021/08/15 08:59:18;;;;;;;10.43;4.85;;;;;;;;;;5049105;28;20193;-70
2021/08/15 09:01:44;;;;;;;9.50;5.22;;;;;;;;;;5049819;28;20215;-70
2021/08/15 09:04:10;;;;;;;8.93;4.82;;;;;;;;;;5047712;28;20697;-70
2021/08/15 09:06:37;;;;;;;8.10;4.72;;;;;;;;;;5049676;28;20166;-70
2021/08/15 09:09:12;;;;;;;11.77;4.90;;;;;;;;;;5046032;28;20198;-70
2021/08/15 09:11:38;;;;;;;12.02;5.55;;;;;;;;;;5051302;28;20173;-70
2021/08/15 09:14:03;;;;;;;12.60;6.10;;;;;;;;;;5050126;28;20647;-70
2021/08/15 09:16:47;;;;;;;9.73;4.75;;;;;;;;;;5054486;28;20195;-69
2021/08/15 09:19:23;;;;;;;11.73;5.50;;;;;;;;;;5049070;28;20216;-70
2021/08/15 09:21:48;;;;;;;11.25;5.30;;;;;;;;;;5053614;28;20201;-69
2021/08/15 09:24:13;;;;;;;10.18;4.80;;;;;;;;;;5053014;28;20240;-69
2021/08/15 09:26:38;;;;;;;8.17;4.70;;;;;;;;;;5054358;28;20174;-70
2021/08/15 09:29:14;;;;;;;9.50;4.60;;;;;;;;;;5052059;28;20589;-70
2021/08/15 09:31:42;;;;;;;6.82;3.80;;;;;;;;;;5051581;28;20409;-70
2021/08/15 09:34:22;;;;;;;5.82;3.10;;;;;;;;;;5051083;28;20181;-70
2021/08/15 09:36:47;;;;;;;5.75;3.75;;;;;;;;;;5054195;28;20181;-70
2021/08/15 09:39:12;;;;;;;7.20;3.90;;;;;;;;;;5052597;28;20561;-70
2021/08/15 09:41:39;;;;;;;7.17;3.97;;;;;;;;;;5055569;28;20188;-72
2021/08/15 09:44:19;;;;;;;8.02;4.18;;;;;;;;;;5035263;28;20935;-72
2021/08/15 09:46:56;;;;;;;9.40;3.67;;;;;;;;;;5052440;28;20173;-69
2021/08/15 09:49:22;;;;;;;9.02;3.60;;;;;;;;;;5053316;28;20207;-70
2021/08/15 09:51:47;;;;;;;10.27;4.17;;;;;;;;;;5052636;28;20193;-69
2021/08/15 09:54:14;;;;;;;8.87;3.97;;;;;;;;;;5051467;28;20422;-70
2021/08/15 09:56:40;;;;;;;8.35;4.10;;;;;;;;;;5052343;28;20671;-69
2021/08/15 09:59:16;;;;;;;6.80;3.92;;;;;;;;;;5052230;28;20202;-71
2021/08/15 10:01:42;;;;;;;6.25;3.65;;;;;;;;;;5051075;28;20183;-69
2021/08/15 10:04:07;;;;;;;7.13;3.80;;;;;;;;;;5049134;28;20201;-70
2021/08/15 10:06:34;;;;;;;8.23;3.83;;;;;;;;;;5053128;28;20189;-69
2021/08/15 10:09:01;;;;;;;5.72;3.58;;;;;;;;;;5052007;28;20550;-69
2021/08/15 10:11:26;;;;;;;9.40;4.28;;;;;;;;;;5049357;28;20311;-69
2021/08/15 10:13:51;;;;;;;6.60;3.60;;;;;;;;;;5053383;28;20611;-70
2021/08/15 10:16:18;;;;;;;6.97;3.13;;;;;;;;;;5053217;28;20189;-73
2021/08/15 10:18:46;;;;;;;9.85;5.28;;;;;;;;;;5052879;28;20182;-69
2021/08/15 10:21:13;;;;;;;7.50;3.97;;;;;;;;;;5051015;28;20200;-68
2021/08/15 10:23:40;;;;;;;6.85;3.80;;;;;;;;;;5052884;28;20193;-70
2021/08/15 10:26:37;;;;;;;7.57;3.92;;;;;;;;;;5052241;28;20233;-69
2021/08/15 10:29:03;;;;;;;8.73;3.97;;;;;;;;;;4983043;28;20209;-69
2021/08/15 10:31:52;;;;;;;9.15;4.25;;;;;;;;;;5033008;28;20536;-69
2021/08/15 10:34:17;;;;;;;8.85;5.75;;;;;;;;;;5005664;28;20192;-69
2021/08/15 10:36:44;;;;;;;7.20;3.37;;;;;;;;;;5053075;28;20175;-69
2021/08/15 10:39:29;;;;;;;5.35;3.20;;;;;;;;;;5052361;28;20571;-69
2021/08/15 10:41:54;;;;;;;4.72;3.00;;;;;;;;;;5051538;28;20181;-70
2021/08/15 10:44:20;;;;;;;4.10;2.17;;;;;;;;;;5034892;28;20192;-69
2021/08/15 10:47:03;;;;;;;6.38;2.33;;;;;;;;;;5047892;28;20486;-69
2021/08/15 10:49:47;;;;;;;6.53;2.95;;;;;;;;;;5052453;28;20697;-69
2021/08/15 10:52:28;;;;;;;3.88;2.75;;;;;;;;;;5030252;28;20184;-69
2021/08/15 10:55:01;;;;;;;5.35;2.70;;;;;;;;;;5033184;28;20239;-69
2021/08/15 10:57:40;;;;;;;5.03;3.00;;;;;;;;;;5050240;28;20264;-69
2021/08/15 11:00:23;;;;;;;5.53;3.17;;;;;;;;;;5050669;28;20247;-69
2021/08/15 11:02:48;;;;;;;5.28;2.70;;;;;;;;;;5031696;28;20182;-69
2021/08/15 11:05:32;;;;;;;6.17;2.83;;;;;;;;;;5034318;28;20177;-70
2021/08/15 11:07:57;;;;;;;5.43;2.75;;;;;;;;;;5051736;28;20402;-70
2021/08/15 11:10:23;;;;;;;4.83;2.53;;;;;;;;;;5047577;28;20293;-70
2021/08/15 11:13:08;;;;;;;5.65;2.55;;;;;;;;;;5032574;28;20181;-68
2021/08/15 11:15:33;;;;;;;4.40;2.38;;;;;;;;;;5044232;28;20705;-69
2021/08/15 11:18:12;;;;;;;7.67;2.43;;;;;;;;;;5048771;28;20185;-69
2021/08/15 11:20:51;;;;;;;3.63;2.22;;;;;;;;;;5050898;28;20205;-69
2021/08/15 11:23:16;;;;;;;3.85;1.95;;;;;;;;;;5028841;28;20228;-70
2021/08/15 11:25:42;;;;;;;3.70;2.08;;;;;;;;;;5049308;28;20213;-70
2021/08/15 11:28:07;;;;;;;5.00;2.25;;;;;;;;;;5051770;28;20227;-69
2021/08/15 11:30:33;;;;;;;3.28;1.80;;;;;;;;;;5050955;28;20196;-70
2021/08/15 11:33:00;;;;;;;5.13;1.98;;;;;;;;;;5029697;28;20197;-69
2021/08/15 11:35:44;;;;;;;2.20;1.63;;;;;;;;;;5041804;28;20197;-69
2021/08/15 11:38:11;;;;;;;1.73;1.27;;;;;;;;;;5047274;28;20189;-71
2021/08/15 11:40:40;;;;;;;3.90;1.85;;;;;;;;;;5032363;28;20686;-69
2021/08/15 11:43:19;;;;;;;5.30;1.83;;;;;;;;;;5049199;28;20177;-70
2021/08/15 11:45:46;;;;;;;2.65;1.77;;;;;;;;;;5048827;28;20250;-68
2021/08/15 11:48:13;;;;;;;1.98;1.50;;;;;;;;;;5049724;28;20231;-70
2021/08/15 11:50:45;;;;;;;3.35;1.83;;;;;;;;;;5051388;28;20271;-71
2021/08/15 11:53:24;;;;;;;3.00;1.60;;;;;;;;;;5051305;28;20441;-70
2021/08/15 11:55:50;;;;;;;5.45;1.40;;;;;;;;;;5033269;28;20602;-70
2021/08/15 11:58:16;;;;;;;3.10;1.38;;;;;;;;;;5052441;28;20189;-70
2021/08/15 12:00:41;;;;;;;1.73;1.10;;;;;;;;;;5049843;28;20216;-69
2021/08/15 12:03:12;;;;;;;2.97;1.27;;;;;;;;;;5050060;28;20690;-69
2021/08/15 12:05:40;;;;;;;4.13;1.60;;;;;;;;;;5049181;28;20509;-68
2021/08/15 12:08:06;;;;;;;3.03;1.45;;;;;;;;;;5050198;28;20185;-68
2021/08/15 12:10:35;;;;;;;3.78;1.65;;;;;;;;;;5031954;28;20846;-68
2021/08/15 12:13:31;;;;;;;3.83;1.50;;;;;;;;;;5031961;28;20613;-68
2021/08/15 12:15:59;;;;;;;5.03;1.73;;;;;;;;;;5030557;28;20189;-68
2021/08/15 12:18:35;;;;;;;6.20;2.20;;;;;;;;;;5046190;28;20180;-69
2021/08/15 12:21:02;;;;;;;4.55;2.15;;;;;;;;;;5047628;28;20260;-74
2021/08/15 12:23:28;;;;;;;3.15;2.10;;;;;;;;;;5045647;28;20193;-68
2021/08/15 12:26:05;;;;;;;4.00;1.83;;;;;;;;;;5048721;28;20260;-70
2021/08/15 12:28:35;;;;;;;4.05;1.80;;;;;;;;;;5048384;28;20223;-68
2021/08/15 12:31:17;;;;;;;3.05;2.08;;;;;;;;;;5047189;28;20675;-69
2021/08/15 12:33:43;;;;;;;6.93;1.77;;;;;;;;;;5045747;28;20177;-69
2021/08/15 12:36:18;;;;;;;3.58;1.98;;;;;;;;;;5048117;28;20188;-69
2021/08/15 12:38:43;;;;;;;4.03;2.08;;;;;;;;;;5046687;28;20262;-68
2021/08/15 12:41:29;;;;;;;3.07;1.60;;;;;;;;;;5050536;28;20204;-68
2021/08/15 12:44:04;;;;;;;4.03;1.75;;;;;;;;;;5050248;28;20603;-70
2021/08/15 12:46:29;;;;;;;2.97;2.03;;;;;;;;;;5042858;28;20177;-68
2021/08/15 12:48:55;;;;;;;3.03;1.90;;;;;;;;;;5050355;28;20201;-74
2021/08/15 12:51:20;;;;;;;2.90;1.53;;;;;;;;;;5053599;28;20544;-69
2021/08/15 12:53:45;;;;;;;3.28;1.77;;;;;;;;;;5054874;28;20888;-71
2021/08/15 12:56:18;;;;;;;4.28;1.95;;;;;;;;;;5053508;28;20185;-70
2021/08/15 12:58:44;;;;;;;3.63;1.70;;;;;;;;;;5052674;28;20200;-69
2021/08/15 13:01:09;;;;;;;3.20;1.73;;;;;;;;;;5052557;28;20711;-68
2021/08/15 13:03:34;;;;;;;2.90;1.90;;;;;;;;;;5053831;28;20193;-68
2021/08/15 13:06:02;;;;;;;2.65;1.60;;;;;;;;;;5051081;28;20583;-69
2021/08/15 13:08:27;;;;;;;3.38;1.90;;;;;;;;;;5033600;28;20197;-69
2021/08/15 13:10:52;;;;;;;5.20;2.20;;;;;;;;;;5053047;28;20255;-70
2021/08/15 13:13:18;;;;;;;4.37;2.40;;;;;;;;;;5049331;28;20532;-68
2021/08/15 13:15:43;;;;;;;5.13;2.30;;;;;;;;;;5052248;28;20197;-70
2021/08/15 13:18:08;;;;;;;4.80;2.00;;;;;;;;;;5054485;28;20476;-69
2021/08/15 13:20:34;;;;;;;4.05;2.22;;;;;;;;;;5051469;28;20220;-69
2021/08/15 13:22:59;;;;;;;5.13;2.20;;;;;;;;;;5049974;28;20262;-68
2021/08/15 13:25:26;;;;;;;4.47;2.05;;;;;;;;;;5053038;28;20173;-69
2021/08/15 13:27:52;;;;;;;6.45;2.72;;;;;;;;;;5032856;28;20178;-69
2021/08/15 13:30:17;;;;;;;3.78;1.92;;;;;;;;;;5046130;28;20202;-68
2021/08/15 13:32:43;;;;;;;4.67;2.40;;;;;;;;;;5051340;28;20182;-69
2021/08/15 13:35:09;;;;;;;3.25;2.08;;;;;;;;;;5049405;28;20448;-69
2021/08/15 13:37:34;;;;;;;4.40;2.17;;;;;;;;;;5050320;28;20204;-69
2021/08/15 13:40:04;;;;;;;2.55;2.10;;;;;;;;;;5052074;28;20683;-68
2021/08/15 13:42:29;;;;;;;2.35;1.95;;;;;;;;;;5049806;28;20223;-70
2021/08/15 13:44:56;;;;;;;5.05;2.28;;;;;;;;;;5050971;28;20235;-68
2021/08/15 13:47:21;;;;;;;5.45;2.17;;;;;;;;;;5052416;28;20704;-70
2021/08/15 13:49:47;;;;;;;2.88;2.40;;;;;;;;;;5052294;28;20284;-69
2021/08/15 13:52:12;;;;;;;5.43;2.42;;;;;;;;;;5050380;28;20185;-68
2021/08/15 13:54:38;;;;;;;3.40;2.42;;;;;;;;;;5053919;28;20196;-69
2021/08/15 13:57:03;;;;;;;4.13;2.05;;;;;;;;;;5050526;28;20173;-68
2021/08/15 13:59:28;;;;;;;3.67;2.40;;;;;;;;;;5050939;28;20645;-69
2021/08/15 14:01:54;;;;;;;2.70;1.97;;;;;;;;;;5053220;28;20173;-69
2021/08/15 14:04:19;;;;;;;4.67;2.60;;;;;;;;;;5050625;28;20746;-69
2021/08/15 14:06:44;;;;;;;3.05;2.20;;;;;;;;;;5052254;28;20178;-69
2021/08/15 14:09:09;;;;;;;5.23;3.03;;;;;;;;;;5050314;28;20209;-68
2021/08/15 14:11:35;;;;;;;6.07;2.93;;;;;;;;;;5052274;28;20173;-69
2021/08/15 14:14:00;;;;;;;2.80;2.50;;;;;;;;;;5049947;28;20438;-68
2021/08/15 14:16:25;;;;;;;5.57;3.13;;;;;;;;;;5051258;28;20185;-68
2021/08/15 14:18:50;;;;;;;6.90;4.10;;;;;;;;;;5052759;28;20554;-69
2021/08/15 14:21:16;;;;;;;5.83;3.20;;;;;;;;;;5034316;28;20228;-69
2021/08/15 14:23:43;;;;;;;5.25;3.03;;;;;;;;;;5050953;28;20240;-70
2021/08/15 14:26:08;;;;;;;7.47;4.07;;;;;;;;;;5048037;28;20631;-68
2021/08/15 14:28:33;;;;;;;5.55;3.08;;;;;;;;;;5051974;28;20170;-69
2021/08/15 14:30:59;;;;;;;7.85;3.10;;;;;;;;;;5049177;28;20637;-68
2021/08/15 14:33:26;;;;;;;6.03;3.03;;;;;;;;;;5053260;28;20655;-69
2021/08/15 14:35:51;;;;;;;3.75;3.08;;;;;;;;;;5031398;28;20182;-69